Stations météo

réclame
Mon MeteoGroup
Bourg-St-Maurice, France (7497): Température de l'air & dewpoint: 15.05.2019 01:00:00 - 21.05.2019 01:00:00 (CEST)Bourg-St-Maurice, France (7497): Température de l'air -20cm & Température de l'air -100cm: 15.05.2019 01:00:00 - 21.05.2019 01:00:00 (CEST)Bourg-St-Maurice, France (7497): Vitesse du vent & gusts: 15.05.2019 01:00:00 - 21.05.2019 01:00:00 (CEST)Bourg-St-Maurice, France (7497): Direction du vent: 15.05.2019 01:00:00 - 21.05.2019 01:00:00 (CEST)Bourg-St-Maurice, France (7497): Ensoleillement: 15.05.2019 01:00:00 - 21.05.2019 01:00:00 (CEST)Bourg-St-Maurice, France (7497): Quantités de précipitations: 15.05.2019 01:00:00 - 21.05.2019 01:00:00 (CEST)
Date & Time tt [°C] td [°C] tt -20cm [°C] tt -100cm [°C] ff [km/h] ff [knt] fx [km/h] fx [knt] dd sd [min] rr [mm]
21.05.2019 01:00:00 9,6 8,8 15,0 13,0 4 2 9 5 SSW 0 0,0
21.05.2019 00:00:00 9,6 8,7 15,1 13,0 3 2 14 7 WSW 0 0,0
20.05.2019 23:00:00 9,7 8,8 15,2 13,0 6 3 16 9 SSW 0 0,0
20.05.2019 22:00:00 9,9 8,8 15,2 13,0 7 4 12 7 SSW 0 0,2
20.05.2019 21:00:00 10,3 8,7 15,2 13,0 6 3 17 9 SSW 0 0,0
20.05.2019 20:00:00 10,9 8,6 15,2 13,0 7 4 16 9 SW 0 0,0
20.05.2019 19:00:00 11,6 8,8 15,2 13,0 5 3 22 12 WSW 0 0,2
20.05.2019 18:00:00 12,6 7,9 15,1 13,0 9 5 26 14 S 0 0,0
20.05.2019 17:00:00 13,2 8,9 15,0 13,0 10 5 28 15 SSW 0 0,0
20.05.2019 16:00:00 13,6 8,2 14,9 13,0 8 4 26 14 S 0 0,0
20.05.2019 15:00:00 12,8 9,4 14,8 13,0 5 3 21 11 SSW 2 0,0
20.05.2019 14:00:00 11,8 9,0 14,7 13,0 10 5 19 10 SW 0 0,0
20.05.2019 13:00:00 11,7 9,3 14,6 13,0 6 3 14 7 SW 0 0,2
20.05.2019 12:00:00 10,4 8,0 14,6 13,0 5 3 10 5 WSW 0 0,2
20.05.2019 11:00:00 9,9 8,2 14,6 13,0 0 0 4 2 N 0 0,2
20.05.2019 10:00:00 8,9 7,3 14,7 13,0 0 0 3 2 N 0 0,2
20.05.2019 09:00:00 8,6 7,5 14,7 13,0 0 0 3 2 N 0 0,4
20.05.2019 08:00:00 8,2 7,1 14,9 13,0 0 0 4 2 N 0 0,4
20.05.2019 07:00:00 7,9 7,0 15,0 13,0 0 0 3 2 N 0 0,6
20.05.2019 06:00:00 7,9 6,8 15,1 13,0 0 0 3 1 N 0 0,4
20.05.2019 05:00:00 8,0 7,1 15,3 13,0 0 0 2 1 N 0 0,6
20.05.2019 04:00:00 8,2 7,3 15,4 13,0 0 0 4 2 N 0 1,6
20.05.2019 03:00:00 8,4 7,8 15,6 13,0 0 0 4 2 N 0 1,0
20.05.2019 02:00:00 8,5 7,7 15,7 13,0 0 0 2 1 N 0 2,3
20.05.2019 01:00:00 8,7 7,9 15,9 13,0 0 0 5 3 N 0 2,6
20.05.2019 00:00:00 9,4 8,9 15,9 12,9 0 0 9 5 N 0 1,6
19.05.2019 23:00:00 9,5 9,0 16,0 12,9 3 2 8 4 S 0 0,8
19.05.2019 22:00:00 9,8 9,3 16,1 12,9 3 2 8 4 SSW 0 0,4
19.05.2019 21:00:00 9,9 9,3 16,1 12,9 4 2 9 5 SW 0 0,0
19.05.2019 20:00:00 10,1 9,5 16,1 12,9 3 2 10 6 SSW 0 0,8
19.05.2019 19:00:00 10,1 9,2 16,1 12,9 3 2 29 15 SW 0 0,6
19.05.2019 18:00:00 11,4 8,1 16,0 12,9 12 7 32 18 SSW 5 0,0
19.05.2019 17:00:00 13,5 8,5 15,8 12,9 12 6 35 19 S 22 0,0
19.05.2019 16:00:00 15,1 9,5 15,6 12,9 11 6 26 14 S 26 0,0
19.05.2019 15:00:00 15,0 8,0 15,4 12,9 10 5 18 10 S 35 0,4
19.05.2019 14:00:00 13,2 9,4 15,3 12,9 5 3 20 11 SSW 0 0,2
19.05.2019 13:00:00 14,1 7,6 15,1 12,9 8 4 22 12 S 2 0,0
19.05.2019 12:00:00 14,5 7,1 14,9 12,9 11 6 27 15 S 41 0,0
19.05.2019 11:00:00 13,7 6,1 14,8 12,9 6 4 16 9 SSW 15 0,0
19.05.2019 10:00:00 12,7 6,3 14,7 12,9 4 2 11 6 S 24 0,0
19.05.2019 09:00:00 11,4 7,7 14,8 12,9 5 3 10 5 S 39 0,0
19.05.2019 08:00:00 9,5 8,3 14,9 12,9 0 0 4 2 N 3 0,0
19.05.2019 07:00:00 8,9 8,1 15,0 12,9 3 1 5 3 S 0 0,0
19.05.2019 06:00:00 8,9 8,0 15,1 12,9 0 0 4 2 N 0 0,0
19.05.2019 05:00:00 9,2 8,0 15,1 12,9 0 0 5 3 N 0 0,0
19.05.2019 04:00:00 9,3 7,7 15,2 12,9 0 0 5 3 N 0 0,0
19.05.2019 03:00:00 9,4 7,8 15,3 12,9 0 0 3 2 N 0 0,0
19.05.2019 02:00:00 9,5 7,3 15,4 12,9 0 0 4 2 N 0 0,0
19.05.2019 01:00:00 9,6 7,2 15,5 12,9 0 0 5 3 N 0 0,0
19.05.2019 00:00:00 9,6 7,2 15,5 12,9 0 0 9 5 N 0 0,0
18.05.2019 23:00:00 10,1 6,8 15,6 12,9 3 2 12 7 SSW 0 0,0
18.05.2019 22:00:00 11,1 6,8 15,7 12,9 5 3 11 6 SW 0 0,0
18.05.2019 21:00:00 12,3 5,7 15,6 12,9 2 1 11 6 W 0 0,0
18.05.2019 20:00:00 13,4 5,0 15,6 12,9 5 3 31 17 SSW 0 0,0
18.05.2019 19:00:00 14,7 4,7 15,5 12,8 10 5 24 13 SSE 4 0,0
18.05.2019 18:00:00 15,3 5,2 15,3 12,9 11 6 29 15 SSE 22 0,0
18.05.2019 17:00:00 17,0 1,8 15,1 12,9 12 7 30 16 ENE 29 0,0
18.05.2019 16:00:00 16,8 2,4 14,9 12,8 13 7 29 16 ENE 9 0,0
18.05.2019 15:00:00 15,6 4,0 14,8 12,8 3 2 23 13 ESE 0 0,0
18.05.2019 14:00:00 13,2 5,4 14,7 12,8 9 5 24 13 SW 0 0,0
18.05.2019 13:00:00 12,1 5,9 14,6 12,8 11 6 23 12 SSW 0 0,0
18.05.2019 12:00:00 12,2 6,2 14,4 12,8 10 5 25 13 SSW 1 0,0
18.05.2019 11:00:00 12,7 6,3 14,4 12,8 10 5 22 12 S 32 0,0
18.05.2019 10:00:00 11,9 6,2 14,4 12,8 7 4 13 7 S 50 0,0
18.05.2019 09:00:00 8,7 6,1 14,4 12,8 4 2 8 4 SSE 0 0,0
18.05.2019 08:00:00 7,6 6,5 14,5 12,8 4 2 7 4 SSW 0 0,0
18.05.2019 07:00:00 7,3 6,4 14,6 12,8 0 0 5 3 N 0 0,0
18.05.2019 06:00:00 7,2 6,1 14,7 12,8 0 0 5 3 N 0 0,0
18.05.2019 05:00:00 7,4 6,3 14,8 12,8 3 1 6 4 S 0 0,0
18.05.2019 04:00:00 7,4 6,2 14,9 12,8 0 0 8 5 N 0 0,0
18.05.2019 03:00:00 7,5 6,3 15,0 12,8 5 3 10 6 SW 0 0,0
18.05.2019 02:00:00 7,7 6,3 15,1 12,8 5 3 10 6 SSW 0 0,0
18.05.2019 01:00:00 7,7 6,3 15,2 12,7 4 2 10 6 SSW 0 0,0
18.05.2019 00:00:00 7,7 6,3 15,3 12,7 4 2 10 5 SSW 0 0,0
17.05.2019 23:00:00 7,8 6,1 15,4 12,7 6 3 13 7 SW 0 0,0
17.05.2019 22:00:00 8,3 6,3 15,5 12,7 6 3 16 9 SSW 0 0,0
17.05.2019 21:00:00 9,0 6,4 15,5 12,7 9 5 20 11 SSW 0 0,0
17.05.2019 20:00:00 10,5 6,1 15,5 12,7 9 5 19 11 SSW 0 0,0
17.05.2019 19:00:00 12,3 5,2 15,5 12,7 10 5 37 20 SSW 0 0,0
17.05.2019 18:00:00 14,6 0,8 15,4 12,7 16 9 44 24 ENE 0 0,0
17.05.2019 17:00:00 15,7 0,7 15,4 12,7 13 7 39 21 ENE 3 0,0
17.05.2019 16:00:00 15,6 1,3 15,4 12,7 11 6 43 23 NNE 0 0,0
17.05.2019 15:00:00 14,7 1,6 15,3 12,6 18 10 45 24 ENE 0 0,0
17.05.2019 14:00:00 15,5 1,9 15,3 12,7 16 9 39 21 ENE 9 0,0
17.05.2019 13:00:00 14,3 2,5 15,3 12,6 17 9 44 24 ENE 0 0,0
17.05.2019 12:00:00 14,3 2,8 15,3 12,6 14 8 27 15 ENE 0 0,0
17.05.2019 11:00:00 13,9 3,1 15,3 12,6 8 5 37 20 E 0 0,0
17.05.2019 10:00:00 14,4 2,3 15,3 12,6 16 9 39 21 ENE 0 0,0
17.05.2019 09:00:00 14,1 1,7 15,4 12,5 9 5 44 24 NE 13 0,0
17.05.2019 08:00:00 12,3 2,4 15,6 12,6 12 7 37 20 NE 18 0,0
17.05.2019 07:00:00 8,3 3,7 15,8 12,6 3 1 10 6 NNW 0 0,0
17.05.2019 06:00:00 7,4 4,0 15,9 12,6 3 2 8 4 N 0 0,0
17.05.2019 05:00:00 7,9 3,5 16,1 12,5 4 2 9 5 WNW 0 0,0
17.05.2019 04:00:00 7,6 3,6 16,3 12,5 0 0 6 3 N 0 0,0
17.05.2019 03:00:00 8,3 3,3 16,4 12,5 2 1 8 5 NNE 0 0,0
17.05.2019 02:00:00 8,4 4,0 16,6 12,5 0 0 4 2 N 0 0,0
17.05.2019 01:00:00 9,2 3,8 16,8 12,5 2 1 9 5 W 0 0,0
17.05.2019 00:00:00 10,2 3,7 16,9 12,5 3 2 10 6 NW 0 0,0
16.05.2019 23:00:00 10,6 3,4 17,0 12,5 4 2 14 8 WSW 0 0,0
16.05.2019 22:00:00 12,5 1,8 17,1 12,5 9 5 15 8 WNW 0 0,0
16.05.2019 21:00:00 13,2 1,8 17,1 12,5 4 2 13 7 W 0 0,0
16.05.2019 20:00:00 14,9 1,1 17,0 12,4 5 3 12 6 W 12 0,0
16.05.2019 19:00:00 18,4 -1,5 16,9 12,4 8 5 14 8 SW 60 0,0
16.05.2019 18:00:00 19,0 -3,2 16,6 12,4 5 3 23 13 SSE 58 0,0
16.05.2019 17:00:00 19,5 -3,4 16,2 12,4 10 6 29 16 SE 60 0,0
16.05.2019 16:00:00 19,6 -2,7 15,8 12,4 7 4 35 19 S 60 0,0
16.05.2019 15:00:00 18,4 -1,0 15,3 12,4 10 5 32 17 NW 48 0,0
16.05.2019 14:00:00 19,1 1,6 14,8 12,4 7 4 19 10 SSW 41 0,0
16.05.2019 13:00:00 18,6 2,8 14,5 12,4 6 3 18 10 S 60 0,0
16.05.2019 12:00:00 15,8 2,9 14,3 12,4 7 4 13 7 S 60 0,0
16.05.2019 11:00:00 13,3 2,8 14,3 12,4 6 3 13 7 S 60 0,0
16.05.2019 10:00:00 10,3 2,1 14,4 12,4 5 3 11 6 SSE 60 0,0
16.05.2019 09:00:00 8,0 2,9 14,5 12,3 4 2 8 4 SSE 60 0,0
16.05.2019 08:00:00 6,1 2,4 14,7 12,3 3 1 5 3 NE 60 0,0
16.05.2019 07:00:00 3,2 1,6 15,0 12,3 3 2 8 4 NNW 0 0,0
16.05.2019 06:00:00 3,1 1,5 15,2 12,3 4 2 5 3 NNW 0 0,0
16.05.2019 05:00:00 3,5 1,7 15,4 12,3 0 0 5 3 N 0 0,0
16.05.2019 04:00:00 4,0 1,7 15,6 12,3 3 1 5 3 WSW 0 0,0
16.05.2019 03:00:00 4,8 1,8 15,8 12,3 2 1 6 3 NW 0 0,0
16.05.2019 02:00:00 5,9 1,8 16,0 12,3 0 0 5 3 N 0 0,0
16.05.2019 01:00:00 6,5 2,0 16,2 12,3 2 1 6 4 WNW 0 0,0
16.05.2019 00:00:00 7,3 2,2 16,3 12,3 3 2 8 4 W 0 0,0
15.05.2019 23:00:00 8,3 2,5 16,5 12,3 4 2 7 4 WNW 0 0,0
15.05.2019 22:00:00 10,3 1,9 16,6 12,2 4 2 17 9 WSW 0 0,0
15.05.2019 21:00:00 11,8 1,4 16,6 12,3 4 2 16 9 WNW 0 0,0
15.05.2019 20:00:00 14,0 0,9 16,5 12,2 7 4 24 13 ESE 19 0,0
15.05.2019 19:00:00 16,1 0,6 16,4 12,2 8 4 27 15 SSW 60 0,0
15.05.2019 18:00:00 17,4 0,5 16,1 12,2 10 5 26 14 S 60 0,0
15.05.2019 17:00:00 18,4 0,0 15,8 12,2 11 6 29 16 SSW 60 0,0
15.05.2019 16:00:00 18,0 -1,3 15,3 12,2 9 5 23 13 S 60 0,0
15.05.2019 15:00:00 18,1 -0,7 14,8 12,2 9 5 21 11 S 60 0,0
15.05.2019 14:00:00 16,5 -3,6 14,4 12,2 4 2 12 6 S 60 0,0
15.05.2019 13:00:00 15,3 -3,1 14,0 12,2 5 3 14 7 S 60 0,0
15.05.2019 12:00:00 13,2 -4,0 13,8 12,2 5 3 11 6 WSW 60 0,0
15.05.2019 11:00:00 11,1 -2,7 13,8 12,1 3 2 13 7 SW 60 0,0
15.05.2019 10:00:00 9,1 -1,6 13,9 12,1 6 3 14 7 SSE 60 0,0
15.05.2019 09:00:00 7,2 -0,5 14,1 12,1 5 3 16 8 SSW 60 0,0
15.05.2019 08:00:00 5,5 0,5 14,3 12,1 4 2 7 4 S 60 0,0
15.05.2019 07:00:00 3,2 -0,3 14,4 12,1 3 2 8 4 WNW 0 0,0
15.05.2019 06:00:00 3,9 -0,1 14,6 12,1 3 1 7 4 WSW 0 0,0
15.05.2019 05:00:00 4,9 0,3 14,8 12,1 3 1 10 5 WSW 0 0,0
15.05.2019 04:00:00 5,4 0,6 15,0 12,1 3 1 12 7 W 0 0,0
15.05.2019 03:00:00 6,1 0,4 15,2 12,1 4 2 14 8 SW 0 0,0
15.05.2019 02:00:00 7,6 0,6 15,3 12,1 5 3 13 7 SW 0 0,0
15.05.2019 01:00:00 8,4 1,1 15,5 12,1 5 3 11 6 SW 0 0,0

tt = Température de l'air
td = dewpoint
tt -20cm = Température de l'air -20cm
tt -100cm = Température de l'air -100cm
ff = Vitesse du vent
fx = gusts
dd = Direction du vent
sd = Ensoleillement
rr = Quantités de précipitations

stations d'obs. à proximité